sensor_id;sensor_type;location;lat;lon;timestamp;P1;durP1;ratioP1;P2;durP2;ratioP2
3407;SDS011;1717;50.240;8.406;2022-10-03T00:00:27;26.03;;;16.63;;
3407;SDS011;1717;50.240;8.406;2022-10-03T00:05:59;28.30;;;15.60;;
3407;SDS011;1717;50.240;8.406;2022-10-03T00:08:45;24.60;;;18.03;;
3407;SDS011;1717;50.240;8.406;2022-10-03T00:11:38;25.63;;;16.53;;
3407;SDS011;1717;50.240;8.406;2022-10-03T00:14:20;24.90;;;17.10;;
3407;SDS011;1717;50.240;8.406;2022-10-03T00:16:58;23.97;;;16.93;;
3407;SDS011;1717;50.240;8.406;2022-10-03T00:22:02;23.40;;;16.80;;
3407;SDS011;1717;50.240;8.406;2022-10-03T00:24:40;26.10;;;18.33;;
3407;SDS011;1717;50.240;8.406;2022-10-03T00:27:16;25.17;;;17.27;;
3407;SDS011;1717;50.240;8.406;2022-10-03T00:29:57;25.30;;;16.90;;
3407;SDS011;1717;50.240;8.406;2022-10-03T00:32:36;24.87;;;17.23;;
3407;SDS011;1717;50.240;8.406;2022-10-03T00:35:18;26.80;;;17.03;;
3407;SDS011;1717;50.240;8.406;2022-10-03T00:37:59;27.40;;;16.20;;
3407;SDS011;1717;50.240;8.406;2022-10-03T00:40:43;29.07;;;16.47;;
3407;SDS011;1717;50.240;8.406;2022-10-03T00:43:44;28.40;;;16.70;;
3407;SDS011;1717;50.240;8.406;2022-10-03T00:46:44;28.53;;;17.70;;
3407;SDS011;1717;50.240;8.406;2022-10-03T00:52:37;20.03;;;13.30;;
3407;SDS011;1717;50.240;8.406;2022-10-03T00:55:24;20.63;;;14.43;;
3407;SDS011;1717;50.240;8.406;2022-10-03T00:58:05;21.90;;;14.60;;
3407;SDS011;1717;50.240;8.406;2022-10-03T01:00:56;26.80;;;14.30;;
3407;SDS011;1717;50.240;8.406;2022-10-03T01:03:34;21.07;;;14.57;;
3407;SDS011;1717;50.240;8.406;2022-10-03T01:06:12;26.40;;;17.10;;
3407;SDS011;1717;50.240;8.406;2022-10-03T01:09:00;21.60;;;15.70;;
3407;SDS011;1717;50.240;8.406;2022-10-03T01:11:49;23.60;;;15.77;;
3407;SDS011;1717;50.240;8.406;2022-10-03T01:14:32;24.70;;;16.00;;
3407;SDS011;1717;50.240;8.406;2022-10-03T01:17:11;21.60;;;14.23;;
3407;SDS011;1717;50.240;8.406;2022-10-03T01:19:51;26.07;;;16.87;;
3407;SDS011;1717;50.240;8.406;2022-10-03T01:22:40;24.23;;;17.17;;
3407;SDS011;1717;50.240;8.406;2022-10-03T01:25:35;33.60;;;17.40;;
3407;SDS011;1717;50.240;8.406;2022-10-03T01:28:18;23.50;;;15.93;;
3407;SDS011;1717;50.240;8.406;2022-10-03T01:31:14;24.13;;;15.67;;
3407;SDS011;1717;50.240;8.406;2022-10-03T01:33:45;27.83;;;17.97;;
3407;SDS011;1717;50.240;8.406;2022-10-03T01:36:19;26.77;;;18.40;;
3407;SDS011;1717;50.240;8.406;2022-10-03T01:38:57;27.20;;;17.83;;
3407;SDS011;1717;50.240;8.406;2022-10-03T01:41:29;26.37;;;17.80;;
3407;SDS011;1717;50.240;8.406;2022-10-03T01:44:09;35.60;;;18.10;;
3407;SDS011;1717;50.240;8.406;2022-10-03T01:46:42;25.27;;;16.57;;
3407;SDS011;1717;50.240;8.406;2022-10-03T01:49:15;24.77;;;15.50;;
3407;SDS011;1717;50.240;8.406;2022-10-03T01:51:50;27.40;;;17.90;;
3407;SDS011;1717;50.240;8.406;2022-10-03T01:54:26;25.00;;;16.40;;
3407;SDS011;1717;50.240;8.406;2022-10-03T01:56:59;22.00;;;16.93;;
3407;SDS011;1717;50.240;8.406;2022-10-03T01:59:32;32.93;;;18.10;;
3407;SDS011;1717;50.240;8.406;2022-10-03T02:02:07;23.80;;;15.53;;
3407;SDS011;1717;50.240;8.406;2022-10-03T02:04:43;25.67;;;15.70;;
3407;SDS011;1717;50.240;8.406;2022-10-03T02:07:19;26.00;;;16.00;;
3407;SDS011;1717;50.240;8.406;2022-10-03T02:09:58;26.03;;;17.80;;
3407;SDS011;1717;50.240;8.406;2022-10-03T02:12:31;24.97;;;16.13;;
3407;SDS011;1717;50.240;8.406;2022-10-03T02:15:10;22.20;;;16.20;;
3407;SDS011;1717;50.240;8.406;2022-10-03T02:17:42;24.60;;;17.27;;
3407;SDS011;1717;50.240;8.406;2022-10-03T02:20:24;25.60;;;16.03;;
3407;SDS011;1717;50.240;8.406;2022-10-03T02:22:59;23.20;;;16.13;;
3407;SDS011;1717;50.240;8.406;2022-10-03T02:25:30;20.37;;;16.03;;
3407;SDS011;1717;50.240;8.406;2022-10-03T02:28:20;21.70;;;14.30;;
3407;SDS011;1717;50.240;8.406;2022-10-03T02:31:17;23.20;;;15.40;;
3407;SDS011;1717;50.240;8.406;2022-10-03T02:34:24;26.20;;;15.87;;
3407;SDS011;1717;50.240;8.406;2022-10-03T02:37:17;20.47;;;15.17;;
3407;SDS011;1717;50.240;8.406;2022-10-03T02:43:09;26.00;;;13.77;;
3407;SDS011;1717;50.240;8.406;2022-10-03T02:46:09;20.90;;;15.50;;
3407;SDS011;1717;50.240;8.406;2022-10-03T02:49:14;22.77;;;14.27;;
3407;SDS011;1717;50.240;8.406;2022-10-03T02:52:25;19.30;;;12.60;;
3407;SDS011;1717;50.240;8.406;2022-10-03T02:55:17;24.87;;;14.60;;
3407;SDS011;1717;50.240;8.406;2022-10-03T02:58:04;25.93;;;13.53;;
3407;SDS011;1717;50.240;8.406;2022-10-03T03:01:14;23.13;;;14.53;;
3407;SDS011;1717;50.240;8.406;2022-10-03T03:04:14;23.93;;;14.33;;
3407;SDS011;1717;50.240;8.406;2022-10-03T03:07:14;19.00;;;14.23;;
3407;SDS011;1717;50.240;8.406;2022-10-03T03:10:20;19.40;;;15.23;;
3407;SDS011;1717;50.240;8.406;2022-10-03T03:13:05;25.10;;;14.73;;
3407;SDS011;1717;50.240;8.406;2022-10-03T03:19:20;29.13;;;16.40;;
3407;SDS011;1717;50.240;8.406;2022-10-03T03:22:08;26.67;;;17.33;;
3407;SDS011;1717;50.240;8.406;2022-10-03T03:24:48;30.43;;;16.20;;
3407;SDS011;1717;50.240;8.406;2022-10-03T03:27:39;22.37;;;15.33;;
3407;SDS011;1717;50.240;8.406;2022-10-03T03:30:13;26.70;;;17.40;;
3407;SDS011;1717;50.240;8.406;2022-10-03T03:32:47;25.33;;;17.97;;
3407;SDS011;1717;50.240;8.406;2022-10-03T03:35:28;29.93;;;15.77;;
3407;SDS011;1717;50.240;8.406;2022-10-03T03:38:07;23.77;;;16.30;;
3407;SDS011;1717;50.240;8.406;2022-10-03T03:40:50;29.23;;;17.13;;
3407;SDS011;1717;50.240;8.406;2022-10-03T03:46:38;29.53;;;18.37;;
3407;SDS011;1717;50.240;8.406;2022-10-03T03:49:19;30.37;;;18.30;;
3407;SDS011;1717;50.240;8.406;2022-10-03T03:52:00;40.30;;;19.03;;
3407;SDS011;1717;50.240;8.406;2022-10-03T03:54:55;37.23;;;23.13;;
3407;SDS011;1717;50.240;8.406;2022-10-03T03:58:00;32.80;;;20.37;;
3407;SDS011;1717;50.240;8.406;2022-10-03T04:00:41;33.73;;;19.97;;
3407;SDS011;1717;50.240;8.406;2022-10-03T04:03:30;29.70;;;19.40;;
3407;SDS011;1717;50.240;8.406;2022-10-03T04:06:15;34.57;;;20.50;;
3407;SDS011;1717;50.240;8.406;2022-10-03T04:09:11;32.40;;;19.27;;
3407;SDS011;1717;50.240;8.406;2022-10-03T04:11:57;31.80;;;19.63;;
3407;SDS011;1717;50.240;8.406;2022-10-03T04:14:38;32.43;;;20.53;;
3407;SDS011;1717;50.240;8.406;2022-10-03T04:17:29;34.03;;;18.17;;
3407;SDS011;1717;50.240;8.406;2022-10-03T04:23:38;34.00;;;19.10;;
3407;SDS011;1717;50.240;8.406;2022-10-03T04:26:23;29.90;;;18.17;;
3407;SDS011;1717;50.240;8.406;2022-10-03T04:29:09;27.50;;;17.60;;
3407;SDS011;1717;50.240;8.406;2022-10-03T04:31:54;33.80;;;20.77;;
3407;SDS011;1717;50.240;8.406;2022-10-03T04:34:34;24.70;;;16.20;;
3407;SDS011;1717;50.240;8.406;2022-10-03T04:37:11;28.13;;;17.67;;
3407;SDS011;1717;50.240;8.406;2022-10-03T04:39:54;28.73;;;17.37;;
3407;SDS011;1717;50.240;8.406;2022-10-03T04:42:38;31.33;;;18.77;;
3407;SDS011;1717;50.240;8.406;2022-10-03T04:48:04;29.13;;;17.97;;
3407;SDS011;1717;50.240;8.406;2022-10-03T04:50:41;24.03;;;16.23;;
3407;SDS011;1717;50.240;8.406;2022-10-03T04:53:22;22.93;;;16.47;;
3407;SDS011;1717;50.240;8.406;2022-10-03T04:56:09;30.23;;;18.37;;
3407;SDS011;1717;50.240;8.406;2022-10-03T04:59:03;29.17;;;17.90;;
3407;SDS011;1717;50.240;8.406;2022-10-03T05:01:39;28.17;;;18.77;;
3407;SDS011;1717;50.240;8.406;2022-10-03T05:04:15;28.00;;;18.03;;
3407;SDS011;1717;50.240;8.406;2022-10-03T05:06:54;27.00;;;17.33;;
3407;SDS011;1717;50.240;8.406;2022-10-03T05:09:32;29.33;;;18.50;;
3407;SDS011;1717;50.240;8.406;2022-10-03T05:12:06;30.23;;;17.70;;
3407;SDS011;1717;50.240;8.406;2022-10-03T05:14:46;30.30;;;18.47;;
3407;SDS011;1717;50.240;8.406;2022-10-03T05:17:26;26.33;;;16.57;;
3407;SDS011;1717;50.240;8.406;2022-10-03T05:20:17;30.60;;;17.87;;
3407;SDS011;1717;50.240;8.406;2022-10-03T05:22:51;30.77;;;19.13;;
3407;SDS011;1717;50.240;8.406;2022-10-03T05:25:27;26.70;;;17.53;;
3407;SDS011;1717;50.240;8.406;2022-10-03T05:28:09;31.23;;;18.23;;
3407;SDS011;1717;50.240;8.406;2022-10-03T05:30:46;28.37;;;18.37;;
3407;SDS011;1717;50.240;8.406;2022-10-03T05:33:21;32.57;;;19.20;;
3407;SDS011;1717;50.240;8.406;2022-10-03T05:36:12;31.17;;;18.10;;
3407;SDS011;1717;50.240;8.406;2022-10-03T05:42:03;31.70;;;17.00;;
3407;SDS011;1717;50.240;8.406;2022-10-03T05:45:01;25.83;;;17.00;;
3407;SDS011;1717;50.240;8.406;2022-10-03T05:47:32;25.93;;;17.60;;
3407;SDS011;1717;50.240;8.406;2022-10-03T05:50:28;24.73;;;15.93;;
3407;SDS011;1717;50.240;8.406;2022-10-03T05:53:25;27.50;;;16.73;;
3407;SDS011;1717;50.240;8.406;2022-10-03T05:56:22;33.50;;;17.33;;
3407;SDS011;1717;50.240;8.406;2022-10-03T06:02:20;26.07;;;14.77;;
3407;SDS011;1717;50.240;8.406;2022-10-03T06:05:25;26.23;;;17.10;;
3407;SDS011;1717;50.240;8.406;2022-10-03T06:10:58;21.13;;;15.67;;
3407;SDS011;1717;50.240;8.406;2022-10-03T06:13:39;26.80;;;17.80;;
3407;SDS011;1717;50.240;8.406;2022-10-03T06:16:23;33.30;;;16.80;;
3407;SDS011;1717;50.240;8.406;2022-10-03T06:25:08;28.40;;;16.90;;
3407;SDS011;1717;50.240;8.406;2022-10-03T06:31:10;27.23;;;18.07;;
3407;SDS011;1717;50.240;8.406;2022-10-03T06:34:14;32.77;;;17.10;;
3407;SDS011;1717;50.240;8.406;2022-10-03T06:37:15;29.17;;;16.67;;
3407;SDS011;1717;50.240;8.406;2022-10-03T06:40:30;25.80;;;16.43;;
3407;SDS011;1717;50.240;8.406;2022-10-03T06:43:34;27.43;;;17.53;;
3407;SDS011;1717;50.240;8.406;2022-10-03T06:46:24;30.73;;;18.60;;
3407;SDS011;1717;50.240;8.406;2022-10-03T06:49:31;22.40;;;16.00;;
3407;SDS011;1717;50.240;8.406;2022-10-03T06:52:17;29.93;;;18.07;;
3407;SDS011;1717;50.240;8.406;2022-10-03T06:58:24;27.57;;;18.00;;
3407;SDS011;1717;50.240;8.406;2022-10-03T07:01:19;30.63;;;17.70;;
3407;SDS011;1717;50.240;8.406;2022-10-03T07:07:17;30.17;;;19.80;;
3407;SDS011;1717;50.240;8.406;2022-10-03T07:10:18;34.17;;;18.77;;
3407;SDS011;1717;50.240;8.406;2022-10-03T07:13:07;35.40;;;18.90;;
3407;SDS011;1717;50.240;8.406;2022-10-03T07:25:03;38.00;;;20.20;;
3407;SDS011;1717;50.240;8.406;2022-10-03T07:28:05;37.90;;;20.27;;
3407;SDS011;1717;50.240;8.406;2022-10-03T07:30:53;31.53;;;19.43;;
3407;SDS011;1717;50.240;8.406;2022-10-03T07:46:06;26.53;;;14.03;;
3407;SDS011;1717;50.240;8.406;2022-10-03T07:48:54;22.27;;;13.93;;
3407;SDS011;1717;50.240;8.406;2022-10-03T07:51:52;16.90;;;11.30;;
3407;SDS011;1717;50.240;8.406;2022-10-03T07:54:41;23.80;;;12.00;;
3407;SDS011;1717;50.240;8.406;2022-10-03T08:00:31;19.33;;;10.53;;
3407;SDS011;1717;50.240;8.406;2022-10-03T08:06:21;23.90;;;14.30;;
3407;SDS011;1717;50.240;8.406;2022-10-03T08:09:04;23.13;;;13.70;;
3407;SDS011;1717;50.240;8.406;2022-10-03T08:11:53;24.37;;;13.23;;
3407;SDS011;1717;50.240;8.406;2022-10-03T08:14:42;35.57;;;15.97;;
3407;SDS011;1717;50.240;8.406;2022-10-03T08:20:25;27.20;;;15.10;;
3407;SDS011;1717;50.240;8.406;2022-10-03T08:23:08;36.63;;;14.60;;
3407;SDS011;1717;50.240;8.406;2022-10-03T08:25:57;25.33;;;13.70;;
3407;SDS011;1717;50.240;8.406;2022-10-03T08:28:39;31.67;;;15.20;;
3407;SDS011;1717;50.240;8.406;2022-10-03T08:31:22;26.17;;;15.20;;
3407;SDS011;1717;50.240;8.406;2022-10-03T08:37:32;29.80;;;17.40;;
3407;SDS011;1717;50.240;8.406;2022-10-03T08:43:32;20.57;;;12.63;;
3407;SDS011;1717;50.240;8.406;2022-10-03T08:46:40;16.10;;;10.23;;
3407;SDS011;1717;50.240;8.406;2022-10-03T08:49:39;23.40;;;14.13;;
3407;SDS011;1717;50.240;8.406;2022-10-03T08:52:26;21.20;;;12.27;;
3407;SDS011;1717;50.240;8.406;2022-10-03T09:01:25;16.20;;;9.80;;
3407;SDS011;1717;50.240;8.406;2022-10-03T09:07:08;17.20;;;8.73;;
3407;SDS011;1717;50.240;8.406;2022-10-03T09:18:53;14.60;;;9.27;;
3407;SDS011;1717;50.240;8.406;2022-10-03T09:21:45;20.63;;;9.80;;
3407;SDS011;1717;50.240;8.406;2022-10-03T09:24:42;22.43;;;11.63;;
3407;SDS011;1717;50.240;8.406;2022-10-03T09:27:42;16.20;;;9.53;;
3407;SDS011;1717;50.240;8.406;2022-10-03T09:30:34;18.80;;;9.90;;
3407;SDS011;1717;50.240;8.406;2022-10-03T09:42:24;22.83;;;12.53;;
3407;SDS011;1717;50.240;8.406;2022-10-03T09:45:35;13.97;;;10.00;;
3407;SDS011;1717;50.240;8.406;2022-10-03T09:51:27;14.43;;;9.17;;
3407;SDS011;1717;50.240;8.406;2022-10-03T09:54:22;17.50;;;10.80;;
3407;SDS011;1717;50.240;8.406;2022-10-03T10:00:21;18.40;;;10.10;;
3407;SDS011;1717;50.240;8.406;2022-10-03T10:06:21;20.50;;;10.77;;
3407;SDS011;1717;50.240;8.406;2022-10-03T10:15:39;18.27;;;9.93;;
3407;SDS011;1717;50.240;8.406;2022-10-03T10:24:49;19.23;;;7.43;;
3407;SDS011;1717;50.240;8.406;2022-10-03T10:31:05;9.87;;;5.93;;
3407;SDS011;1717;50.240;8.406;2022-10-03T10:34:11;10.87;;;5.43;;
3407;SDS011;1717;50.240;8.406;2022-10-03T10:37:09;10.47;;;5.43;;
3407;SDS011;1717;50.240;8.406;2022-10-03T10:43:16;10.80;;;5.30;;
3407;SDS011;1717;50.240;8.406;2022-10-03T10:46:17;9.13;;;4.63;;
3407;SDS011;1717;50.240;8.406;2022-10-03T10:49:28;7.43;;;3.73;;
3407;SDS011;1717;50.240;8.406;2022-10-03T10:55:38;5.97;;;3.20;;
3407;SDS011;1717;50.240;8.406;2022-10-03T11:01:44;9.13;;;3.57;;
3407;SDS011;1717;50.240;8.406;2022-10-03T11:08:03;7.00;;;3.37;;
3407;SDS011;1717;50.240;8.406;2022-10-03T11:10:57;13.53;;;3.80;;
3407;SDS011;1717;50.240;8.406;2022-10-03T11:13:47;5.20;;;2.57;;
3407;SDS011;1717;50.240;8.406;2022-10-03T11:17:06;4.57;;;2.03;;
3407;SDS011;1717;50.240;8.406;2022-10-03T11:20:23;4.83;;;3.13;;
3407;SDS011;1717;50.240;8.406;2022-10-03T11:26:37;6.80;;;3.90;;
3407;SDS011;1717;50.240;8.406;2022-10-03T11:29:44;6.33;;;3.40;;
3407;SDS011;1717;50.240;8.406;2022-10-03T11:39:02;8.97;;;4.30;;
3407;SDS011;1717;50.240;8.406;2022-10-03T11:41:37;5.63;;;3.33;;
3407;SDS011;1717;50.240;8.406;2022-10-03T11:44:15;13.00;;;3.77;;
3407;SDS011;1717;50.240;8.406;2022-10-03T11:46:49;5.53;;;3.20;;
3407;SDS011;1717;50.240;8.406;2022-10-03T11:52:28;6.37;;;3.10;;
3407;SDS011;1717;50.240;8.406;2022-10-03T11:55:14;5.17;;;3.07;;
3407;SDS011;1717;50.240;8.406;2022-10-03T11:57:52;5.30;;;2.63;;
3407;SDS011;1717;50.240;8.406;2022-10-03T12:00:30;8.70;;;3.30;;
3407;SDS011;1717;50.240;8.406;2022-10-03T12:05:52;6.73;;;3.30;;
3407;SDS011;1717;50.240;8.406;2022-10-03T12:08:37;7.87;;;4.23;;
3407;SDS011;1717;50.240;8.406;2022-10-03T12:11:25;9.30;;;3.20;;
3407;SDS011;1717;50.240;8.406;2022-10-03T12:14:01;5.63;;;2.50;;
3407;SDS011;1717;50.240;8.406;2022-10-03T12:16:56;9.73;;;3.23;;
3407;SDS011;1717;50.240;8.406;2022-10-03T12:19:32;5.10;;;3.70;;
3407;SDS011;1717;50.240;8.406;2022-10-03T12:22:12;9.40;;;2.97;;
3407;SDS011;1717;50.240;8.406;2022-10-03T12:24:51;4.73;;;3.07;;
3407;SDS011;1717;50.240;8.406;2022-10-03T12:27:28;7.03;;;3.07;;
3407;SDS011;1717;50.240;8.406;2022-10-03T12:30:01;7.17;;;3.67;;
3407;SDS011;1717;50.240;8.406;2022-10-03T12:32:37;5.00;;;3.17;;
3407;SDS011;1717;50.240;8.406;2022-10-03T12:35:20;7.83;;;4.40;;
3407;SDS011;1717;50.240;8.406;2022-10-03T12:38:02;7.90;;;4.50;;
3407;SDS011;1717;50.240;8.406;2022-10-03T12:40:41;9.50;;;4.40;;
3407;SDS011;1717;50.240;8.406;2022-10-03T12:43:20;9.47;;;4.90;;
3407;SDS011;1717;50.240;8.406;2022-10-03T12:46:01;7.40;;;4.40;;
3407;SDS011;1717;50.240;8.406;2022-10-03T12:48:39;9.07;;;4.20;;
3407;SDS011;1717;50.240;8.406;2022-10-03T12:51:25;7.07;;;4.00;;
3407;SDS011;1717;50.240;8.406;2022-10-03T12:54:06;5.37;;;3.83;;
3407;SDS011;1717;50.240;8.406;2022-10-03T12:56:43;5.87;;;3.70;;
3407;SDS011;1717;50.240;8.406;2022-10-03T12:59:21;7.90;;;4.37;;
3407;SDS011;1717;50.240;8.406;2022-10-03T13:02:06;7.60;;;4.27;;
3407;SDS011;1717;50.240;8.406;2022-10-03T13:04:50;11.30;;;5.20;;
3407;SDS011;1717;50.240;8.406;2022-10-03T13:07:44;10.43;;;4.30;;
3407;SDS011;1717;50.240;8.406;2022-10-03T13:10:19;7.10;;;4.43;;
3407;SDS011;1717;50.240;8.406;2022-10-03T13:12:57;6.20;;;4.77;;
3407;SDS011;1717;50.240;8.406;2022-10-03T13:15:42;7.23;;;4.53;;
3407;SDS011;1717;50.240;8.406;2022-10-03T13:18:32;7.73;;;5.57;;
3407;SDS011;1717;50.240;8.406;2022-10-03T13:21:18;7.93;;;5.67;;
3407;SDS011;1717;50.240;8.406;2022-10-03T13:23:52;7.73;;;4.50;;
3407;SDS011;1717;50.240;8.406;2022-10-03T13:26:24;7.50;;;4.77;;
3407;SDS011;1717;50.240;8.406;2022-10-03T13:29:11;5.83;;;4.60;;
3407;SDS011;1717;50.240;8.406;2022-10-03T13:31:52;5.50;;;3.57;;
3407;SDS011;1717;50.240;8.406;2022-10-03T13:34:41;8.60;;;4.90;;
3407;SDS011;1717;50.240;8.406;2022-10-03T13:37:23;6.70;;;4.10;;
3407;SDS011;1717;50.240;8.406;2022-10-03T13:39:56;4.70;;;3.87;;
3407;SDS011;1717;50.240;8.406;2022-10-03T13:42:33;7.33;;;3.97;;
3407;SDS011;1717;50.240;8.406;2022-10-03T13:45:05;6.67;;;3.90;;
3407;SDS011;1717;50.240;8.406;2022-10-03T13:47:44;7.47;;;4.13;;
3407;SDS011;1717;50.240;8.406;2022-10-03T13:50:18;4.73;;;4.13;;
3407;SDS011;1717;50.240;8.406;2022-10-03T13:52:51;8.77;;;4.63;;
3407;SDS011;1717;50.240;8.406;2022-10-03T13:55:25;6.23;;;4.20;;
3407;SDS011;1717;50.240;8.406;2022-10-03T14:01:13;7.73;;;3.90;;
3407;SDS011;1717;50.240;8.406;2022-10-03T14:04:01;6.97;;;4.10;;
3407;SDS011;1717;50.240;8.406;2022-10-03T14:06:50;10.43;;;3.67;;
3407;SDS011;1717;50.240;8.406;2022-10-03T14:09:26;6.37;;;3.90;;
3407;SDS011;1717;50.240;8.406;2022-10-03T14:12:04;4.90;;;4.10;;
3407;SDS011;1717;50.240;8.406;2022-10-03T14:14:56;4.67;;;3.80;;
3407;SDS011;1717;50.240;8.406;2022-10-03T14:17:35;6.73;;;4.23;;
3407;SDS011;1717;50.240;8.406;2022-10-03T14:20:13;4.77;;;3.83;;
3407;SDS011;1717;50.240;8.406;2022-10-03T14:22:50;4.70;;;4.30;;
3407;SDS011;1717;50.240;8.406;2022-10-03T14:25:26;6.50;;;3.67;;
3407;SDS011;1717;50.240;8.406;2022-10-03T14:28:00;9.80;;;4.57;;
3407;SDS011;1717;50.240;8.406;2022-10-03T14:30:42;8.47;;;3.70;;
3407;SDS011;1717;50.240;8.406;2022-10-03T14:33:18;5.33;;;3.93;;
3407;SDS011;1717;50.240;8.406;2022-10-03T14:36:00;5.30;;;4.20;;
3407;SDS011;1717;50.240;8.406;2022-10-03T14:38:39;5.20;;;3.80;;
3407;SDS011;1717;50.240;8.406;2022-10-03T14:41:26;6.37;;;4.83;;
3407;SDS011;1717;50.240;8.406;2022-10-03T14:44:04;7.13;;;5.17;;
3407;SDS011;1717;50.240;8.406;2022-10-03T14:46:38;5.20;;;3.70;;
3407;SDS011;1717;50.240;8.406;2022-10-03T14:49:14;7.97;;;4.90;;
3407;SDS011;1717;50.240;8.406;2022-10-03T14:51:47;5.33;;;4.13;;
3407;SDS011;1717;50.240;8.406;2022-10-03T14:54:19;6.70;;;4.83;;
3407;SDS011;1717;50.240;8.406;2022-10-03T14:56:48;4.90;;;4.20;;
3407;SDS011;1717;50.240;8.406;2022-10-03T14:59:18;8.20;;;4.07;;
3407;SDS011;1717;50.240;8.406;2022-10-03T15:01:49;6.30;;;4.70;;
3407;SDS011;1717;50.240;8.406;2022-10-03T15:04:24;14.90;;;6.90;;
3407;SDS011;1717;50.240;8.406;2022-10-03T15:06:57;5.10;;;3.60;;
3407;SDS011;1717;50.240;8.406;2022-10-03T15:09:31;5.57;;;4.13;;
3407;SDS011;1717;50.240;8.406;2022-10-03T15:12:07;8.13;;;3.80;;
3407;SDS011;1717;50.240;8.406;2022-10-03T15:14:40;6.40;;;4.00;;
3407;SDS011;1717;50.240;8.406;2022-10-03T15:17:16;7.43;;;4.53;;
3407;SDS011;1717;50.240;8.406;2022-10-03T15:19:47;8.10;;;3.90;;
3407;SDS011;1717;50.240;8.406;2022-10-03T15:22:26;6.27;;;3.83;;
3407;SDS011;1717;50.240;8.406;2022-10-03T15:24:58;5.40;;;4.27;;
3407;SDS011;1717;50.240;8.406;2022-10-03T15:27:30;6.87;;;4.30;;
3407;SDS011;1717;50.240;8.406;2022-10-03T15:29:59;7.10;;;3.57;;
3407;SDS011;1717;50.240;8.406;2022-10-03T15:32:31;7.83;;;4.43;;
3407;SDS011;1717;50.240;8.406;2022-10-03T15:35:02;5.90;;;3.83;;
3407;SDS011;1717;50.240;8.406;2022-10-03T15:37:33;5.73;;;4.23;;
3407;SDS011;1717;50.240;8.406;2022-10-03T15:40:07;5.03;;;3.80;;
3407;SDS011;1717;50.240;8.406;2022-10-03T15:42:47;6.60;;;4.37;;
3407;SDS011;1717;50.240;8.406;2022-10-03T15:45:17;6.10;;;5.23;;
3407;SDS011;1717;50.240;8.406;2022-10-03T15:47:53;8.63;;;4.50;;
3407;SDS011;1717;50.240;8.406;2022-10-03T15:50:25;5.00;;;4.13;;
3407;SDS011;1717;50.240;8.406;2022-10-03T15:53:04;7.87;;;4.53;;
3407;SDS011;1717;50.240;8.406;2022-10-03T15:56:22;6.00;;;4.00;;
3407;SDS011;1717;50.240;8.406;2022-10-03T15:58:56;6.13;;;4.70;;
3407;SDS011;1717;50.240;8.406;2022-10-03T16:01:29;5.33;;;3.90;;
3407;SDS011;1717;50.240;8.406;2022-10-03T16:04:00;8.17;;;4.30;;
3407;SDS011;1717;50.240;8.406;2022-10-03T16:06:29;6.60;;;5.10;;
3407;SDS011;1717;50.240;8.406;2022-10-03T16:09:06;5.73;;;4.40;;
3407;SDS011;1717;50.240;8.406;2022-10-03T16:11:43;7.23;;;4.60;;
3407;SDS011;1717;50.240;8.406;2022-10-03T16:14:19;5.80;;;3.70;;
3407;SDS011;1717;50.240;8.406;2022-10-03T16:16:50;5.47;;;4.50;;
3407;SDS011;1717;50.240;8.406;2022-10-03T16:19:22;9.20;;;3.70;;
3407;SDS011;1717;50.240;8.406;2022-10-03T16:21:55;4.93;;;4.43;;
3407;SDS011;1717;50.240;8.406;2022-10-03T16:24:35;5.50;;;3.47;;
3407;SDS011;1717;50.240;8.406;2022-10-03T16:27:11;4.73;;;4.20;;
3407;SDS011;1717;50.240;8.406;2022-10-03T16:29:43;7.63;;;3.97;;
3407;SDS011;1717;50.240;8.406;2022-10-03T16:32:17;6.43;;;4.20;;
3407;SDS011;1717;50.240;8.406;2022-10-03T16:34:47;6.97;;;4.30;;
3407;SDS011;1717;50.240;8.406;2022-10-03T16:37:17;6.50;;;4.50;;
3407;SDS011;1717;50.240;8.406;2022-10-03T16:39:53;7.50;;;4.70;;
3407;SDS011;1717;50.240;8.406;2022-10-03T16:42:24;6.10;;;3.97;;
3407;SDS011;1717;50.240;8.406;2022-10-03T16:44:56;8.03;;;5.50;;
3407;SDS011;1717;50.240;8.406;2022-10-03T16:47:27;5.67;;;4.00;;
3407;SDS011;1717;50.240;8.406;2022-10-03T16:49:59;5.90;;;4.63;;
3407;SDS011;1717;50.240;8.406;2022-10-03T16:52:45;5.87;;;4.83;;
3407;SDS011;1717;50.240;8.406;2022-10-03T16:55:19;4.63;;;4.13;;
3407;SDS011;1717;50.240;8.406;2022-10-03T16:57:51;6.40;;;4.73;;
3407;SDS011;1717;50.240;8.406;2022-10-03T17:00:22;6.43;;;4.70;;
3407;SDS011;1717;50.240;8.406;2022-10-03T17:02:54;9.27;;;4.83;;
3407;SDS011;1717;50.240;8.406;2022-10-03T17:05:22;6.10;;;4.80;;
3407;SDS011;1717;50.240;8.406;2022-10-03T17:07:50;7.03;;;5.00;;
3407;SDS011;1717;50.240;8.406;2022-10-03T17:10:27;5.10;;;4.57;;
3407;SDS011;1717;50.240;8.406;2022-10-03T17:12:59;5.80;;;4.80;;
3407;SDS011;1717;50.240;8.406;2022-10-03T17:15:29;6.67;;;4.87;;
3407;SDS011;1717;50.240;8.406;2022-10-03T17:18:03;6.90;;;4.73;;
3407;SDS011;1717;50.240;8.406;2022-10-03T17:20:40;5.60;;;5.10;;
3407;SDS011;1717;50.240;8.406;2022-10-03T17:23:15;6.30;;;4.70;;
3407;SDS011;1717;50.240;8.406;2022-10-03T17:26:05;6.73;;;5.33;;
3407;SDS011;1717;50.240;8.406;2022-10-03T17:28:36;7.93;;;5.63;;
3407;SDS011;1717;50.240;8.406;2022-10-03T17:31:12;8.17;;;6.17;;
3407;SDS011;1717;50.240;8.406;2022-10-03T17:33:57;6.70;;;4.87;;
3407;SDS011;1717;50.240;8.406;2022-10-03T17:36:37;7.30;;;4.77;;
3407;SDS011;1717;50.240;8.406;2022-10-03T17:39:17;8.30;;;5.07;;
3407;SDS011;1717;50.240;8.406;2022-10-03T17:41:58;8.17;;;5.77;;
3407;SDS011;1717;50.240;8.406;2022-10-03T17:44:32;8.40;;;6.33;;
3407;SDS011;1717;50.240;8.406;2022-10-03T17:47:09;8.27;;;5.53;;
3407;SDS011;1717;50.240;8.406;2022-10-03T17:49:44;8.47;;;5.33;;
3407;SDS011;1717;50.240;8.406;2022-10-03T17:52:21;8.90;;;5.17;;
3407;SDS011;1717;50.240;8.406;2022-10-03T17:54:50;6.33;;;5.17;;
3407;SDS011;1717;50.240;8.406;2022-10-03T17:57:23;9.23;;;6.20;;
3407;SDS011;1717;50.240;8.406;2022-10-03T17:59:55;7.67;;;5.43;;
3407;SDS011;1717;50.240;8.406;2022-10-03T18:02:29;6.43;;;5.13;;
3407;SDS011;1717;50.240;8.406;2022-10-03T18:05:05;5.73;;;5.13;;
3407;SDS011;1717;50.240;8.406;2022-10-03T18:07:38;6.53;;;5.30;;
3407;SDS011;1717;50.240;8.406;2022-10-03T18:10:15;6.40;;;5.67;;
3407;SDS011;1717;50.240;8.406;2022-10-03T18:12:48;9.43;;;6.10;;
3407;SDS011;1717;50.240;8.406;2022-10-03T18:15:29;5.93;;;5.30;;
3407;SDS011;1717;50.240;8.406;2022-10-03T18:18:34;5.63;;;4.93;;
3407;SDS011;1717;50.240;8.406;2022-10-03T18:21:14;7.33;;;5.93;;
3407;SDS011;1717;50.240;8.406;2022-10-03T18:24:03;5.60;;;4.90;;
3407;SDS011;1717;50.240;8.406;2022-10-03T18:26:43;5.87;;;5.00;;
3407;SDS011;1717;50.240;8.406;2022-10-03T18:29:17;7.17;;;5.10;;
3407;SDS011;1717;50.240;8.406;2022-10-03T18:31:51;9.23;;;5.40;;
3407;SDS011;1717;50.240;8.406;2022-10-03T18:34:23;7.60;;;5.77;;
3407;SDS011;1717;50.240;8.406;2022-10-03T18:36:55;7.33;;;6.07;;
3407;SDS011;1717;50.240;8.406;2022-10-03T18:39:26;7.20;;;5.63;;
3407;SDS011;1717;50.240;8.406;2022-10-03T18:41:56;5.47;;;4.97;;
3407;SDS011;1717;50.240;8.406;2022-10-03T18:44:28;5.77;;;4.90;;
3407;SDS011;1717;50.240;8.406;2022-10-03T18:47:01;7.30;;;4.83;;
3407;SDS011;1717;50.240;8.406;2022-10-03T18:49:37;9.20;;;4.60;;
3407;SDS011;1717;50.240;8.406;2022-10-03T18:52:10;6.93;;;5.00;;
3407;SDS011;1717;50.240;8.406;2022-10-03T18:54:45;9.47;;;5.90;;
3407;SDS011;1717;50.240;8.406;2022-10-03T18:57:21;7.93;;;4.73;;
3407;SDS011;1717;50.240;8.406;2022-10-03T18:59:54;8.63;;;5.30;;
3407;SDS011;1717;50.240;8.406;2022-10-03T19:02:29;5.70;;;4.93;;
3407;SDS011;1717;50.240;8.406;2022-10-03T19:05:04;7.70;;;5.77;;
3407;SDS011;1717;50.240;8.406;2022-10-03T19:07:38;7.57;;;5.30;;
3407;SDS011;1717;50.240;8.406;2022-10-03T19:10:22;9.27;;;5.97;;
3407;SDS011;1717;50.240;8.406;2022-10-03T19:12:58;5.80;;;4.43;;
3407;SDS011;1717;50.240;8.406;2022-10-03T19:15:37;6.47;;;4.93;;
3407;SDS011;1717;50.240;8.406;2022-10-03T19:18:17;9.97;;;5.93;;
3407;SDS011;1717;50.240;8.406;2022-10-03T19:20:50;6.80;;;4.90;;
3407;SDS011;1717;50.240;8.406;2022-10-03T19:23:20;7.73;;;4.90;;
3407;SDS011;1717;50.240;8.406;2022-10-03T19:25:52;10.90;;;5.57;;